createdAt,value
2023-04-09T00:01:12.642Z,101514.28
2023-04-09T00:03:42.401Z,101514.44
2023-04-09T00:06:13.700Z,101516.41
2023-04-09T00:08:44.838Z,101509.16
2023-04-09T00:11:14.426Z,101500.31
2023-04-09T00:13:42.891Z,101498.63
2023-04-09T00:16:11.553Z,101488.06
2023-04-09T00:18:40.176Z,101476.69
2023-04-09T00:21:10.349Z,101475.38
2023-04-09T00:23:39.076Z,101471.69
2023-04-09T00:26:10.357Z,101467.53
2023-04-09T00:28:38.983Z,101465.00
2023-04-09T00:31:11.228Z,101468.56
2023-04-09T00:33:39.869Z,101465.25
2023-04-09T00:36:08.554Z,101472.97
2023-04-09T00:38:41.095Z,101482.78
2023-04-09T00:41:11.706Z,101489.16
2023-04-09T00:43:40.408Z,101483.50
2023-04-09T00:46:10.184Z,101484.56
2023-04-09T00:48:40.516Z,101489.06
2023-04-09T00:51:10.472Z,101480.22
2023-04-09T00:53:39.209Z,101481.81
2023-04-09T00:56:11.920Z,101481.81
2023-04-09T00:58:42.259Z,101474.59
2023-04-09T01:01:11.004Z,101464.44
2023-04-09T01:03:39.699Z,101459.88
2023-04-09T01:06:13.252Z,101460.72
2023-04-09T01:08:51.588Z,101441.69
2023-04-09T01:11:33.934Z,101445.75
2023-04-09T01:14:15.375Z,101436.16
2023-04-09T01:16:49.274Z,101441.22
2023-04-09T01:19:36.618Z,101445.94
2023-04-09T01:22:11.220Z,101449.59
2023-04-09T01:24:53.728Z,101443.28
2023-04-09T01:27:24.222Z,101431.13
2023-04-09T01:29:56.174Z,101432.53
2023-04-09T01:32:25.920Z,101419.56
2023-04-09T01:34:55.192Z,101412.81
2023-04-09T01:37:26.732Z,101406.00
2023-04-09T01:39:55.712Z,101411.47
2023-04-09T01:42:24.889Z,101399.91
2023-04-09T01:44:55.554Z,101401.84
2023-04-09T01:47:24.160Z,101401.41
2023-04-09T01:49:54.093Z,101399.06
2023-04-09T01:52:23.319Z,101392.34
2023-04-09T01:54:52.406Z,101386.31
2023-04-09T01:57:20.880Z,101388.38
2023-04-09T01:59:49.571Z,101372.84
2023-04-09T02:02:24.757Z,101358.72
2023-04-09T02:04:55.747Z,101332.84
2023-04-09T02:07:32.356Z,101321.16
2023-04-09T02:10:02.194Z,101318.25
2023-04-09T02:12:33.566Z,101316.28
2023-04-09T02:15:03.101Z,101310.81
2023-04-09T02:17:36.030Z,101319.28
2023-04-09T02:20:04.614Z,101330.56
2023-04-09T02:22:33.154Z,101329.84
2023-04-09T02:25:01.853Z,101328.22
2023-04-09T02:27:30.533Z,101331.41
2023-04-09T02:29:59.039Z,101331.13
2023-04-09T02:32:29.835Z,101323.31
2023-04-09T02:34:59.979Z,101325.56
2023-04-09T02:37:29.645Z,101338.16
2023-04-09T02:39:58.204Z,101347.88
2023-04-09T02:42:26.715Z,101339.00
2023-04-09T02:44:56.519Z,101340.06
2023-04-09T02:47:27.691Z,101333.34
2023-04-09T02:49:56.203Z,101337.69
2023-04-09T02:52:26.363Z,101331.09
2023-04-09T02:54:55.921Z,101333.72
2023-04-09T02:57:24.517Z,101331.94
2023-04-09T02:59:53.446Z,101334.66
2023-04-09T03:02:24.186Z,101328.91
2023-04-09T03:04:54.858Z,101325.44
2023-04-09T03:07:25.682Z,101316.91
2023-04-09T03:09:54.102Z,101312.28
2023-04-09T03:12:23.767Z,101303.25
2023-04-09T03:14:52.608Z,101305.53
2023-04-09T03:17:21.161Z,101292.25
2023-04-09T03:19:49.708Z,101283.03
2023-04-09T03:22:18.268Z,101284.75
2023-04-09T03:24:48.337Z,101284.47
2023-04-09T03:27:17.190Z,101272.31
2023-04-09T03:29:45.751Z,101263.44
2023-04-09T03:32:16.801Z,101267.69
2023-04-09T03:34:48.166Z,101254.41
2023-04-09T03:37:16.710Z,101255.47
2023-04-09T03:39:45.467Z,101251.13
2023-04-09T03:42:15.578Z,101254.72
2023-04-09T03:44:44.101Z,101249.16
2023-04-09T03:47:13.738Z,101247.34
2023-04-09T03:49:42.354Z,101247.63
2023-04-09T03:52:10.869Z,101241.53
2023-04-09T03:54:39.524Z,101241.47
2023-04-09T03:57:08.095Z,101245.13
2023-04-09T03:59:39.145Z,101236.25
2023-04-09T04:02:07.896Z,101229.97
2023-04-09T04:04:36.695Z,101250.56
2023-04-09T04:07:05.563Z,101254.53
2023-04-09T04:09:34.186Z,101242.88
2023-04-09T04:12:03.505Z,101245.69
2023-04-09T04:14:33.069Z,101225.25
2023-04-09T04:17:03.218Z,101230.03
2023-04-09T04:19:32.165Z,101208.41
2023-04-09T04:22:02.844Z,101214.44
2023-04-09T04:24:31.473Z,101203.91
2023-04-09T04:27:00.064Z,101213.78
2023-04-09T04:29:29.374Z,101207.75
2023-04-09T04:31:58.005Z,101197.97
2023-04-09T04:34:28.214Z,101207.19
2023-04-09T04:36:56.796Z,101198.81
2023-04-09T04:39:25.801Z,101203.34
2023-04-09T04:41:54.111Z,101202.56
2023-04-09T04:44:23.446Z,101207.75
2023-04-09T04:46:52.465Z,101215.84
2023-04-09T04:49:21.129Z,101213.31
2023-04-09T04:51:51.150Z,101217.44
2023-04-09T04:54:19.741Z,101203.06
2023-04-09T04:56:51.452Z,101217.44
2023-04-09T04:59:20.002Z,101212.28
2023-04-09T05:01:48.627Z,101205.50
2023-04-09T05:04:17.211Z,101215.56
2023-04-09T05:06:45.723Z,101202.28
2023-04-09T05:09:15.816Z,101206.88
2023-04-09T05:11:44.205Z,101206.31
2023-04-09T05:14:13.525Z,101201.84
2023-04-09T05:16:42.626Z,101196.84
2023-04-09T05:19:11.319Z,101184.81
2023-04-09T05:21:40.857Z,101192.03
2023-04-09T05:24:09.490Z,101198.03
2023-04-09T05:26:39.563Z,101186.75
2023-04-09T05:29:08.298Z,101190.41
2023-04-09T05:31:37.834Z,101190.50
2023-04-09T05:34:06.428Z,101207.31
2023-04-09T05:36:36.137Z,101197.84
2023-04-09T05:39:04.793Z,101196.22
2023-04-09T05:41:36.219Z,101190.13
2023-04-09T05:44:06.413Z,101196.31
2023-04-09T05:46:35.089Z,101189.28
2023-04-09T05:49:03.705Z,101194.44
2023-04-09T05:51:32.318Z,101191.16
2023-04-09T05:54:00.946Z,101193.53
2023-04-09T05:56:29.663Z,101197.94
2023-04-09T05:58:58.255Z,101198.03
2023-04-09T06:01:29.921Z,101201.69
2023-04-09T06:04:00.843Z,101194.53
2023-04-09T06:06:29.698Z,101197.66
2023-04-09T06:08:58.284Z,101197.66
2023-04-09T06:11:27.350Z,101208.00
2023-04-09T06:13:55.828Z,101210.09
2023-04-09T06:16:25.704Z,101204.63
2023-04-09T06:18:57.370Z,101202.19
2023-04-09T06:21:26.218Z,101206.06
2023-04-09T06:23:55.864Z,101198.44
2023-04-09T06:26:25.631Z,101202.75
2023-04-09T06:28:54.274Z,101196.47
2023-04-09T06:31:22.961Z,101187.53
2023-04-09T06:33:51.746Z,101195.34
2023-04-09T06:36:22.162Z,101186.03
2023-04-09T06:38:50.841Z,101166.25
2023-04-09T06:41:22.569Z,101158.13
2023-04-09T06:43:51.627Z,101151.56
2023-04-09T06:46:20.382Z,101159.06
2023-04-09T06:48:49.274Z,101144.22
2023-04-09T06:51:18.033Z,101147.47
2023-04-09T06:53:48.628Z,101143.81
2023-04-09T06:56:18.295Z,101136.44
2023-04-09T06:58:47.467Z,101133.63
2023-04-09T07:01:17.693Z,101127.03
2023-04-09T07:03:46.492Z,101133.81
2023-04-09T07:06:17.312Z,101116.69
2023-04-09T07:08:48.316Z,101118.16
2023-04-09T07:11:18.254Z,101112.78
2023-04-09T07:13:46.882Z,101102.03
2023-04-09T07:16:15.551Z,101100.03
2023-04-09T07:18:45.226Z,101098.53
2023-04-09T07:21:14.938Z,101089.00
2023-04-09T07:23:44.547Z,101093.00
2023-04-09T07:26:14.944Z,101083.44
2023-04-09T07:28:44.431Z,101083.44
2023-04-09T07:31:14.407Z,101078.50
2023-04-09T07:33:43.160Z,101077.94
2023-04-09T07:36:11.817Z,101067.09
2023-04-09T07:38:40.627Z,101067.09
2023-04-09T07:41:12.092Z,101065.19
2023-04-09T07:43:42.763Z,101058.25
2023-04-09T07:46:11.678Z,101053.91
2023-04-09T07:48:40.287Z,101040.84
2023-04-09T07:51:09.181Z,101055.50
2023-04-09T07:53:37.542Z,101042.72
2023-04-09T07:56:07.358Z,101039.13
2023-04-09T07:58:35.850Z,101045.06
2023-04-09T08:01:07.358Z,101032.50
2023-04-09T08:03:36.681Z,101035.53
2023-04-09T08:06:06.373Z,101049.59
2023-04-09T08:08:35.426Z,101048.28
2023-04-09T08:11:04.096Z,101041.19
2023-04-09T08:13:32.955Z,101038.91
2023-04-09T08:16:04.136Z,101037.09
2023-04-09T08:18:34.272Z,101017.81
2023-04-09T08:21:07.689Z,101034.38
2023-04-09T08:23:36.320Z,101035.06
2023-04-09T08:26:05.012Z,101024.16
2023-04-09T08:28:33.572Z,101004.81
2023-04-09T08:31:02.337Z,100994.41
2023-04-09T08:33:31.184Z,100998.53
2023-04-09T08:36:03.080Z,100988.59
2023-04-09T08:38:32.152Z,100992.13
2023-04-09T08:41:00.682Z,101001.25
2023-04-09T08:43:52.569Z,101000.53
2023-04-09T08:46:21.421Z,101004.38
2023-04-09T08:48:52.083Z,100994.38
2023-04-09T08:51:24.394Z,101003.63
2023-04-09T08:54:00.165Z,100990.53
2023-04-09T08:56:30.863Z,100988.16
2023-04-09T08:58:59.579Z,100992.84
2023-04-09T09:01:30.116Z,100976.88
2023-04-09T09:04:01.761Z,100984.13
2023-04-09T09:06:33.864Z,100987.25
2023-04-09T09:09:04.983Z,100970.06
2023-04-09T09:11:34.282Z,100971.03
2023-04-09T09:14:05.027Z,100966.69
2023-04-09T09:16:34.987Z,100972.69
2023-04-09T09:19:04.589Z,100961.19
2023-04-09T09:21:36.838Z,100959.59
2023-04-09T09:24:19.109Z,100971.94
2023-04-09T09:26:47.496Z,100967.41
2023-04-09T09:29:16.063Z,100972.47
2023-04-09T09:31:50.031Z,100974.50
2023-04-09T09:34:18.769Z,100966.56
2023-04-09T09:36:50.401Z,100969.56
2023-04-09T09:39:19.332Z,100971.81
2023-04-09T09:41:48.996Z,100977.63
2023-04-09T09:44:35.655Z,100974.25
2023-04-09T09:47:06.422Z,100972.31
2023-04-09T09:49:34.825Z,100983.00
2023-04-09T09:52:09.276Z,100982.16
2023-04-09T09:54:42.538Z,100973.75
2023-04-09T09:57:13.738Z,100962.81
2023-04-09T09:59:45.260Z,100975.28
2023-04-09T10:02:21.302Z,100967.72
2023-04-09T10:04:53.109Z,100965.28
2023-04-09T10:07:24.190Z,100967.34
2023-04-09T10:09:54.780Z,100969.38
2023-04-09T10:12:26.591Z,100958.44
2023-04-09T10:14:57.667Z,100950.03
2023-04-09T10:17:26.758Z,100961.00
2023-04-09T10:20:04.164Z,100959.44
2023-04-09T10:22:36.505Z,100944.53
2023-04-09T10:25:11.583Z,100943.06
2023-04-09T10:27:40.279Z,100942.50
2023-04-09T10:30:10.993Z,100944.78
2023-04-09T10:32:40.188Z,100930.09
2023-04-09T10:35:11.437Z,100939.25
2023-04-09T10:37:50.817Z,100929.41
2023-04-09T10:40:21.864Z,100917.97
2023-04-09T10:42:50.918Z,100920.63
2023-04-09T10:45:22.415Z,100912.78
2023-04-09T10:47:52.834Z,100905.06
2023-04-09T10:50:24.226Z,100904.94
2023-04-09T10:52:56.739Z,100903.63
2023-04-09T10:55:38.933Z,100906.59
2023-04-09T10:58:12.005Z,100904.91
2023-04-09T11:00:42.767Z,100898.88
2023-04-09T11:03:24.593Z,100886.72
2023-04-09T11:05:57.597Z,100879.63
2023-04-09T11:08:30.429Z,100874.59
2023-04-09T11:11:01.568Z,100870.06
2023-04-09T11:13:31.697Z,100867.88
2023-04-09T11:16:01.398Z,100878.97
2023-04-09T11:18:31.623Z,100877.56
2023-04-09T11:21:02.041Z,100865.91
2023-04-09T11:23:33.321Z,100859.63
2023-04-09T11:26:02.176Z,100853.19
2023-04-09T11:28:30.933Z,100854.16
2023-04-09T11:30:59.723Z,100860.75
2023-04-09T11:33:35.058Z,100853.41
2023-04-09T11:36:07.741Z,100852.44
2023-04-09T11:38:39.116Z,100838.47
2023-04-09T11:41:13.075Z,100848.09
2023-04-09T11:43:41.648Z,100845.44
2023-04-09T11:46:11.697Z,100842.84
2023-04-09T11:48:40.281Z,100848.34
2023-04-09T11:51:09.087Z,100847.84
2023-04-09T11:53:39.280Z,100848.56
2023-04-09T11:56:08.515Z,100844.97
2023-04-09T11:58:38.959Z,100841.75
2023-04-09T12:01:07.923Z,100840.16
2023-04-09T12:03:37.822Z,100858.69
2023-04-09T12:06:10.940Z,100845.09
2023-04-09T12:08:42.168Z,100843.66
2023-04-09T12:11:12.859Z,100817.94
2023-04-09T12:13:43.694Z,100804.06
2023-04-09T12:16:12.988Z,100809.59
2023-04-09T12:18:42.430Z,100811.03
2023-04-09T12:21:12.157Z,100805.28
2023-04-09T12:23:42.235Z,100804.94
2023-04-09T12:26:11.127Z,100811.16
2023-04-09T12:28:39.980Z,100809.84
2023-04-09T12:31:12.339Z,100815.16
2023-04-09T12:33:41.622Z,100807.44
2023-04-09T12:36:10.390Z,100798.53
2023-04-09T12:38:39.163Z,100793.47
2023-04-09T12:41:09.759Z,100790.59
2023-04-09T12:43:39.145Z,100787.44
2023-04-09T12:46:08.720Z,100777.72
2023-04-09T12:48:37.576Z,100766.03
2023-04-09T12:51:06.767Z,100759.19
2023-04-09T12:53:35.716Z,100750.28
2023-04-09T12:56:04.386Z,100750.44
2023-04-09T12:58:34.665Z,100750.28
2023-04-09T13:01:04.586Z,100743.53
2023-04-09T13:03:33.722Z,100743.41
2023-04-09T13:06:02.742Z,100743.94
2023-04-09T13:08:31.425Z,100751.66
2023-04-09T13:11:00.146Z,100746.50
2023-04-09T13:13:29.031Z,100739.25
2023-04-09T13:15:59.305Z,100763.09
2023-04-09T13:18:28.127Z,100747.06
2023-04-09T13:20:56.788Z,100749.47
2023-04-09T13:23:25.702Z,100741.91
2023-04-09T13:25:54.331Z,100749.13
2023-04-09T13:28:22.999Z,100717.59
2023-04-09T13:30:51.644Z,100717.75
2023-04-09T13:33:21.699Z,100712.91
2023-04-09T13:35:51.722Z,100700.03
2023-04-09T13:38:20.412Z,100716.53
2023-04-09T13:40:48.879Z,100709.72
2023-04-09T13:43:17.881Z,100708.97
2023-04-09T13:45:46.511Z,100718.97
2023-04-09T13:48:15.631Z,100722.59
2023-04-09T13:50:45.883Z,100729.03
2023-04-09T13:53:14.396Z,100732.56
2023-04-09T13:55:43.445Z,100715.94
2023-04-09T13:58:11.985Z,100701.03
2023-04-09T14:00:40.733Z,100662.69
2023-04-09T14:03:09.749Z,100634.31
2023-04-09T14:05:38.757Z,100639.81
2023-04-09T14:08:08.832Z,100634.56
2023-04-09T14:10:37.946Z,100650.84
2023-04-09T14:13:07.781Z,100677.72
2023-04-09T14:15:39.357Z,100677.56
2023-04-09T14:18:08.455Z,100686.69
2023-04-09T14:20:38.763Z,100705.25
2023-04-09T14:23:08.888Z,100703.66
2023-04-09T14:25:37.739Z,100683.22
2023-04-09T14:28:06.421Z,100669.44
2023-04-09T14:30:35.551Z,100663.50
2023-04-09T14:33:04.318Z,100679.16
2023-04-09T14:35:32.906Z,100651.34
2023-04-09T14:38:01.902Z,100642.59
2023-04-09T14:40:32.180Z,100652.06
2023-04-09T14:43:01.301Z,100629.78
2023-04-09T14:45:30.803Z,100632.13
2023-04-09T14:47:59.930Z,100616.16
2023-04-09T14:50:28.779Z,100610.13
2023-04-09T14:52:57.549Z,100608.38
2023-04-09T14:55:26.288Z,100619.63
2023-04-09T14:57:58.049Z,100633.50
2023-04-09T15:00:27.051Z,100626.31
2023-04-09T15:02:56.704Z,100613.03
2023-04-09T15:05:25.496Z,100629.16
2023-04-09T15:07:54.178Z,100626.63
2023-04-09T15:10:22.938Z,100631.91
2023-04-09T15:12:51.652Z,100618.97
2023-04-09T15:15:21.899Z,100609.41
2023-04-09T15:17:50.912Z,100613.16
2023-04-09T15:20:19.817Z,100595.75
2023-04-09T15:22:49.783Z,100590.97
2023-04-09T15:25:18.413Z,100586.94
2023-04-09T15:27:47.716Z,100595.53
2023-04-09T15:30:17.553Z,100600.66
2023-04-09T15:32:47.612Z,100608.56
2023-04-09T15:35:20.985Z,100599.25
2023-04-09T15:37:49.798Z,100601.16
2023-04-09T15:40:18.874Z,100592.91
2023-04-09T15:42:47.428Z,100598.75
2023-04-09T15:45:17.637Z,100596.25
2023-04-09T15:47:48.813Z,100576.28
2023-04-09T15:50:17.564Z,100572.81
2023-04-09T15:52:46.638Z,100562.25
2023-04-09T15:55:15.237Z,100554.31
2023-04-09T15:57:47.647Z,100552.13
2023-04-09T16:00:17.041Z,100532.38
2023-04-09T16:02:47.207Z,100519.44
2023-04-09T16:05:15.771Z,100515.97
2023-04-09T16:07:44.472Z,100510.09
2023-04-09T16:10:14.978Z,100501.88
2023-04-09T16:12:43.481Z,100507.44
2023-04-09T16:15:12.740Z,100508.69
2023-04-09T16:17:41.391Z,100512.00
2023-04-09T16:20:11.913Z,100513.97
2023-04-09T16:22:40.586Z,100504.44
2023-04-09T16:25:09.912Z,100505.84
2023-04-09T16:27:38.797Z,100500.81
2023-04-09T16:30:08.250Z,100488.69
2023-04-09T16:32:36.846Z,100477.66
2023-04-09T16:35:06.086Z,100482.28
2023-04-09T16:37:36.541Z,100471.41
2023-04-09T16:40:05.215Z,100473.38
2023-04-09T16:42:33.799Z,100466.53
2023-04-09T16:45:04.678Z,100477.50
2023-04-09T16:47:33.372Z,100478.63
2023-04-09T16:50:03.294Z,100484.72
2023-04-09T16:52:32.005Z,100483.34
2023-04-09T16:55:02.272Z,100490.03
2023-04-09T16:57:31.062Z,100489.00
2023-04-09T16:59:59.783Z,100499.28
2023-04-09T17:02:28.917Z,100497.31
2023-04-09T17:04:57.958Z,100502.59
2023-04-09T17:07:26.771Z,100495.44
2023-04-09T17:09:55.545Z,100470.59
2023-04-09T17:12:26.975Z,100470.06
2023-04-09T17:14:56.403Z,100463.00
2023-04-09T17:17:25.147Z,100469.72
2023-04-09T17:19:53.830Z,100454.91
2023-04-09T17:22:22.632Z,100464.13
2023-04-09T17:24:52.073Z,100471.91
2023-04-09T17:27:21.235Z,100472.47
2023-04-09T17:29:51.348Z,100464.34
2023-04-09T17:32:20.095Z,100468.97
2023-04-09T17:34:49.855Z,100451.38
2023-04-09T17:37:18.643Z,100447.81
2023-04-09T17:39:47.517Z,100439.75
2023-04-09T17:42:16.615Z,100423.97
2023-04-09T17:44:46.305Z,100420.78
2023-04-09T17:47:16.497Z,100425.09
2023-04-09T17:49:46.048Z,100423.28
2023-04-09T17:52:15.061Z,100423.41
2023-04-09T17:54:47.221Z,100426.91
2023-04-09T17:57:15.935Z,100430.63
2023-04-09T17:59:44.681Z,100424.25
2023-04-09T18:02:13.484Z,100419.38
2023-04-09T18:04:44.149Z,100415.59
2023-04-09T18:07:13.257Z,100415.88
2023-04-09T18:09:42.175Z,100413.22
2023-04-09T18:12:11.284Z,100398.69
2023-04-09T18:14:39.972Z,100400.00
2023-04-09T18:17:08.593Z,100388.84
2023-04-09T18:19:37.085Z,100385.06
2023-04-09T18:22:07.104Z,100386.88
2023-04-09T18:24:35.944Z,100382.41
2023-04-09T18:27:04.604Z,100381.31
2023-04-09T18:29:33.467Z,100374.75
2023-04-09T18:32:02.032Z,100376.69
2023-04-09T18:34:30.890Z,100381.16
2023-04-09T18:36:59.547Z,100376.13
2023-04-09T18:39:31.103Z,100376.84
2023-04-09T18:41:59.729Z,100373.31
2023-04-09T18:44:28.397Z,100372.78
2023-04-09T18:46:57.505Z,100372.63
2023-04-09T18:49:27.313Z,100358.28
2023-04-09T18:51:56.926Z,100360.56
2023-04-09T18:54:26.545Z,100355.41
2023-04-09T18:56:57.888Z,100348.72
2023-04-09T18:59:26.545Z,100345.63
2023-04-09T19:01:55.758Z,100348.44
2023-04-09T19:04:28.128Z,100346.63
2023-04-09T19:06:56.769Z,100344.22
2023-04-09T19:09:25.460Z,100327.13
2023-04-09T19:11:55.735Z,100328.59
2023-04-09T19:14:24.409Z,100317.63
2023-04-09T19:16:53.311Z,100312.47
2023-04-09T19:19:22.111Z,100318.50
2023-04-09T19:21:50.832Z,100301.34
2023-04-09T19:24:19.426Z,100311.06
2023-04-09T19:26:48.378Z,100304.09
2023-04-09T19:29:18.413Z,100294.09
2023-04-09T19:31:47.399Z,100290.34
2023-04-09T19:34:16.615Z,100287.97
2023-04-09T19:36:46.537Z,100273.06
2023-04-09T19:39:15.766Z,100267.75
2023-04-09T19:41:44.370Z,100272.22
2023-04-09T19:44:13.163Z,100263.16
2023-04-09T19:46:45.911Z,100257.59
2023-04-09T19:49:15.765Z,100258.72
2023-04-09T19:51:44.342Z,100258.75
2023-04-09T19:54:13.166Z,100266.25
2023-04-09T19:56:42.891Z,100260.53
2023-04-09T19:59:11.528Z,100263.81
2023-04-09T20:01:40.379Z,100258.69
2023-04-09T20:04:10.707Z,100252.66
2023-04-09T20:06:39.396Z,100246.47
2023-04-09T20:09:08.047Z,100240.28
2023-04-09T20:11:36.838Z,100236.53
2023-04-09T20:14:05.365Z,100249.34
2023-04-09T20:16:37.186Z,100232.63
2023-04-09T20:19:06.062Z,100238.75
2023-04-09T20:21:36.065Z,100246.69
2023-04-09T20:24:05.090Z,100248.34
2023-04-09T20:26:33.766Z,100246.66
2023-04-09T20:29:02.986Z,100252.78
2023-04-09T20:31:32.468Z,100231.09
2023-04-09T20:34:01.113Z,100246.50
2023-04-09T20:36:30.003Z,100245.81
2023-04-09T20:39:00.350Z,100232.31
2023-04-09T20:41:29.296Z,100251.50
2023-04-09T20:43:57.904Z,100246.78
2023-04-09T20:46:26.610Z,100235.94
2023-04-09T20:48:56.460Z,100226.09
2023-04-09T20:51:25.059Z,100212.69
2023-04-09T20:53:53.602Z,100220.34
2023-04-09T20:56:23.978Z,100219.91
2023-04-09T20:58:52.829Z,100209.91
2023-04-09T21:01:23.654Z,100210.44
2023-04-09T21:03:52.380Z,100199.97
2023-04-09T21:06:21.173Z,100188.19
2023-04-09T21:08:49.732Z,100182.47
2023-04-09T21:11:18.328Z,100191.09
2023-04-09T21:13:54.523Z,100186.72
2023-04-09T21:16:26.150Z,100191.97
2023-04-09T21:18:54.744Z,100180.31
2023-04-09T21:21:23.794Z,100187.28
2023-04-09T21:23:52.457Z,100178.91
2023-04-09T21:26:21.133Z,100183.56
2023-04-09T21:28:51.290Z,100179.53
2023-04-09T21:31:20.058Z,100171.41
2023-04-09T21:33:48.895Z,100165.03
2023-04-09T21:36:17.701Z,100166.53
2023-04-09T21:38:46.415Z,100179.63
2023-04-09T21:41:15.121Z,100156.69
2023-04-09T21:43:43.886Z,100167.50
2023-04-09T21:46:14.207Z,100155.66
2023-04-09T21:48:43.080Z,100153.72
2023-04-09T21:51:12.072Z,100155.91
2023-04-09T21:53:40.667Z,100153.31
2023-04-09T21:56:09.649Z,100154.50
2023-04-09T21:58:38.408Z,100153.94
2023-04-09T22:01:15.675Z,100150.31
2023-04-09T22:03:52.833Z,100154.06
2023-04-09T22:06:21.569Z,100150.44
2023-04-09T22:08:56.378Z,100143.09
2023-04-09T22:11:28.712Z,100126.81
2023-04-09T22:13:58.235Z,100124.91
2023-04-09T22:16:27.865Z,100131.66
2023-04-09T22:18:58.389Z,100133.56
2023-04-09T22:21:27.921Z,100126.91
2023-04-09T22:23:56.548Z,100134.09
2023-04-09T22:26:25.440Z,100121.28
2023-04-09T22:28:54.261Z,100124.06
2023-04-09T22:31:23.209Z,100116.16
2023-04-09T22:33:51.777Z,100114.19
2023-04-09T22:36:23.311Z,100115.63
2023-04-09T22:38:52.067Z,100113.50
2023-04-09T22:41:21.818Z,100110.78
2023-04-09T22:43:50.740Z,100112.91
2023-04-09T22:46:19.389Z,100111.47
2023-04-09T22:48:48.879Z,100116.41
2023-04-09T22:51:17.990Z,100119.97
2023-04-09T22:53:48.809Z,100127.91
2023-04-09T22:56:17.575Z,100127.44
2023-04-09T22:58:46.226Z,100127.78
2023-04-09T23:01:15.069Z,100137.03
2023-04-09T23:03:43.618Z,100131.16
2023-04-09T23:06:12.281Z,100132.88
2023-04-09T23:08:41.277Z,100137.97
2023-04-09T23:11:11.921Z,100135.06
2023-04-09T23:13:40.603Z,100129.50
2023-04-09T23:16:10.904Z,100134.53
2023-04-09T23:18:39.825Z,100147.88
2023-04-09T23:21:09.126Z,100148.91
2023-04-09T23:23:40.690Z,100184.69
2023-04-09T23:26:10.644Z,100180.91
2023-04-09T23:28:38.962Z,100191.38
2023-04-09T23:31:07.771Z,100185.63
2023-04-09T23:33:36.584Z,100188.00
2023-04-09T23:36:05.322Z,100184.91
2023-04-09T23:38:33.976Z,100176.88
2023-04-09T23:41:02.702Z,100170.06
2023-04-09T23:43:32.927Z,100173.09
2023-04-09T23:46:01.532Z,100171.66
2023-04-09T23:48:30.196Z,100166.91
2023-04-09T23:50:58.829Z,100170.84
2023-04-09T23:53:28.124Z,100155.41
2023-04-09T23:55:56.776Z,100168.28
2023-04-09T23:58:26.069Z,100159.63
